sensor_id;sensor_type;location;lat;lon;timestamp;temperature;humidity
11934;DHT22;6026;48.784;9.198;2023-03-23T00:01:51;14.10;99.90
11934;DHT22;6026;48.784;9.198;2023-03-23T00:04:17;14.10;99.90
11934;DHT22;6026;48.784;9.198;2023-03-23T00:06:43;14.10;99.90
11934;DHT22;6026;48.784;9.198;2023-03-23T00:09:13;14.00;99.90
11934;DHT22;6026;48.784;9.198;2023-03-23T00:11:40;14.00;99.90
11934;DHT22;6026;48.784;9.198;2023-03-23T00:14:06;14.10;99.90
11934;DHT22;6026;48.784;9.198;2023-03-23T00:16:39;14.00;99.90
11934;DHT22;6026;48.784;9.198;2023-03-23T00:19:11;14.00;99.90
11934;DHT22;6026;48.784;9.198;2023-03-23T00:21:41;13.90;99.90
11934;DHT22;6026;48.784;9.198;2023-03-23T00:24:08;14.00;99.90
11934;DHT22;6026;48.784;9.198;2023-03-23T00:26:36;13.90;99.90
11934;DHT22;6026;48.784;9.198;2023-03-23T00:29:06;13.80;99.90
11934;DHT22;6026;48.784;9.198;2023-03-23T00:31:32;13.90;99.90
11934;DHT22;6026;48.784;9.198;2023-03-23T00:34:02;13.90;99.90
11934;DHT22;6026;48.784;9.198;2023-03-23T00:36:33;13.90;99.90
11934;DHT22;6026;48.784;9.198;2023-03-23T00:39:01;13.90;99.90
11934;DHT22;6026;48.784;9.198;2023-03-23T00:41:27;13.90;99.90
11934;DHT22;6026;48.784;9.198;2023-03-23T00:43:55;13.90;99.90
11934;DHT22;6026;48.784;9.198;2023-03-23T00:46:21;13.90;99.90
11934;DHT22;6026;48.784;9.198;2023-03-23T00:48:48;13.90;99.90
11934;DHT22;6026;48.784;9.198;2023-03-23T00:51:16;13.90;99.90
11934;DHT22;6026;48.784;9.198;2023-03-23T00:53:43;13.90;99.90
11934;DHT22;6026;48.784;9.198;2023-03-23T00:56:09;13.90;99.90
11934;DHT22;6026;48.784;9.198;2023-03-23T00:58:34;13.90;99.90
11934;DHT22;6026;48.784;9.198;2023-03-23T01:01:00;13.90;99.90
11934;DHT22;6026;48.784;9.198;2023-03-23T01:03:26;13.90;99.90
11934;DHT22;6026;48.784;9.198;2023-03-23T01:05:54;13.90;99.90
11934;DHT22;6026;48.784;9.198;2023-03-23T01:08:21;13.90;99.90
11934;DHT22;6026;48.784;9.198;2023-03-23T01:10:48;13.90;99.90
11934;DHT22;6026;48.784;9.198;2023-03-23T01:13:14;13.90;99.90
11934;DHT22;6026;48.784;9.198;2023-03-23T01:15:41;13.90;99.90
11934;DHT22;6026;48.784;9.198;2023-03-23T01:18:07;13.90;99.90
11934;DHT22;6026;48.784;9.198;2023-03-23T01:20:34;13.90;99.90
11934;DHT22;6026;48.784;9.198;2023-03-23T01:23:00;13.90;99.90
11934;DHT22;6026;48.784;9.198;2023-03-23T01:25:35;14.00;99.90
11934;DHT22;6026;48.784;9.198;2023-03-23T01:28:02;13.90;99.90
11934;DHT22;6026;48.784;9.198;2023-03-23T01:30:28;13.90;99.90
11934;DHT22;6026;48.784;9.198;2023-03-23T01:32:54;13.90;99.90
11934;DHT22;6026;48.784;9.198;2023-03-23T01:35:21;13.90;99.90
11934;DHT22;6026;48.784;9.198;2023-03-23T01:37:46;14.00;99.90
11934;DHT22;6026;48.784;9.198;2023-03-23T01:40:13;14.00;99.90
11934;DHT22;6026;48.784;9.198;2023-03-23T01:42:39;14.00;99.90
11934;DHT22;6026;48.784;9.198;2023-03-23T01:48:00;14.00;99.90
11934;DHT22;6026;48.784;9.198;2023-03-23T01:50:28;14.00;99.90
11934;DHT22;6026;48.784;9.198;2023-03-23T01:52:56;14.00;99.90
11934;DHT22;6026;48.784;9.198;2023-03-23T01:55:25;13.90;99.90
11934;DHT22;6026;48.784;9.198;2023-03-23T01:57:51;13.90;99.90
11934;DHT22;6026;48.784;9.198;2023-03-23T02:00:18;13.90;99.90
11934;DHT22;6026;48.784;9.198;2023-03-23T02:02:45;13.90;99.90
11934;DHT22;6026;48.784;9.198;2023-03-23T02:05:15;13.80;99.90
11934;DHT22;6026;48.784;9.198;2023-03-23T02:07:45;13.70;99.90
11934;DHT22;6026;48.784;9.198;2023-03-23T02:10:11;13.70;99.90
11934;DHT22;6026;48.784;9.198;2023-03-23T02:12:37;13.70;99.90
11934;DHT22;6026;48.784;9.198;2023-03-23T02:15:03;13.70;99.90
11934;DHT22;6026;48.784;9.198;2023-03-23T02:28:19;13.80;99.90
11934;DHT22;6026;48.784;9.198;2023-03-23T02:36:19;13.70;99.90
11934;DHT22;6026;48.784;9.198;2023-03-23T02:41:34;13.70;99.90
11934;DHT22;6026;48.784;9.198;2023-03-23T02:44:03;13.70;99.90
11934;DHT22;6026;48.784;9.198;2023-03-23T02:46:30;13.70;99.90
11934;DHT22;6026;48.784;9.198;2023-03-23T02:48:57;13.70;99.90
11934;DHT22;6026;48.784;9.198;2023-03-23T02:51:26;13.70;99.90
11934;DHT22;6026;48.784;9.198;2023-03-23T02:53:54;13.60;99.90
11934;DHT22;6026;48.784;9.198;2023-03-23T02:56:23;13.60;99.90
11934;DHT22;6026;48.784;9.198;2023-03-23T02:58:50;13.60;99.90
11934;DHT22;6026;48.784;9.198;2023-03-23T03:03:55;13.50;99.90
11934;DHT22;6026;48.784;9.198;2023-03-23T03:12:55;13.60;99.90
11934;DHT22;6026;48.784;9.198;2023-03-23T03:17:45;13.50;99.90
11934;DHT22;6026;48.784;9.198;2023-03-23T03:20:14;13.50;99.90
11934;DHT22;6026;48.784;9.198;2023-03-23T03:22:43;13.50;99.90
11934;DHT22;6026;48.784;9.198;2023-03-23T03:25:10;13.50;99.90
11934;DHT22;6026;48.784;9.198;2023-03-23T03:27:42;13.50;99.90
11934;DHT22;6026;48.784;9.198;2023-03-23T03:30:11;13.50;99.90
11934;DHT22;6026;48.784;9.198;2023-03-23T03:32:43;13.40;99.90
11934;DHT22;6026;48.784;9.198;2023-03-23T03:35:09;13.40;99.90
11934;DHT22;6026;48.784;9.198;2023-03-23T03:37:37;13.40;99.90
11934;DHT22;6026;48.784;9.198;2023-03-23T03:40:07;13.40;99.90
11934;DHT22;6026;48.784;9.198;2023-03-23T03:42:41;13.40;99.90
11934;DHT22;6026;48.784;9.198;2023-03-23T03:45:12;13.30;99.90
11934;DHT22;6026;48.784;9.198;2023-03-23T03:47:38;13.30;99.90
11934;DHT22;6026;48.784;9.198;2023-03-23T03:50:04;13.30;99.90
11934;DHT22;6026;48.784;9.198;2023-03-23T03:52:31;13.20;99.90
11934;DHT22;6026;48.784;9.198;2023-03-23T03:54:57;13.20;99.90
11934;DHT22;6026;48.784;9.198;2023-03-23T03:57:23;13.20;99.90
11934;DHT22;6026;48.784;9.198;2023-03-23T03:59:49;13.20;99.90
11934;DHT22;6026;48.784;9.198;2023-03-23T04:02:15;13.30;99.90
11934;DHT22;6026;48.784;9.198;2023-03-23T04:04:45;13.30;99.90
11934;DHT22;6026;48.784;9.198;2023-03-23T04:07:11;13.30;99.90
11934;DHT22;6026;48.784;9.198;2023-03-23T04:09:42;13.30;99.90
11934;DHT22;6026;48.784;9.198;2023-03-23T04:12:08;13.30;99.90
11934;DHT22;6026;48.784;9.198;2023-03-23T04:14:34;13.30;99.90
11934;DHT22;6026;48.784;9.198;2023-03-23T04:17:00;13.30;99.90
11934;DHT22;6026;48.784;9.198;2023-03-23T04:19:25;13.30;99.90
11934;DHT22;6026;48.784;9.198;2023-03-23T04:21:54;13.30;99.90
11934;DHT22;6026;48.784;9.198;2023-03-23T04:24:20;13.20;99.90
11934;DHT22;6026;48.784;9.198;2023-03-23T04:26:47;13.20;99.90
11934;DHT22;6026;48.784;9.198;2023-03-23T04:29:12;13.20;99.90
11934;DHT22;6026;48.784;9.198;2023-03-23T04:31:38;13.20;99.90
11934;DHT22;6026;48.784;9.198;2023-03-23T04:34:05;13.30;99.90
11934;DHT22;6026;48.784;9.198;2023-03-23T04:36:31;13.30;99.90
11934;DHT22;6026;48.784;9.198;2023-03-23T04:38:59;13.20;99.90
11934;DHT22;6026;48.784;9.198;2023-03-23T04:41:25;13.30;99.90
11934;DHT22;6026;48.784;9.198;2023-03-23T04:43:51;13.30;99.90
11934;DHT22;6026;48.784;9.198;2023-03-23T04:46:19;13.30;99.90
11934;DHT22;6026;48.784;9.198;2023-03-23T04:48:46;13.30;99.90
11934;DHT22;6026;48.784;9.198;2023-03-23T04:51:12;13.40;99.90
11934;DHT22;6026;48.784;9.198;2023-03-23T04:53:38;13.50;99.90
11934;DHT22;6026;48.784;9.198;2023-03-23T04:56:05;13.50;99.90
11934;DHT22;6026;48.784;9.198;2023-03-23T04:58:30;13.50;99.90
11934;DHT22;6026;48.784;9.198;2023-03-23T05:00:59;13.50;99.90
11934;DHT22;6026;48.784;9.198;2023-03-23T05:03:25;13.60;99.90
11934;DHT22;6026;48.784;9.198;2023-03-23T05:05:52;13.60;99.90
11934;DHT22;6026;48.784;9.198;2023-03-23T05:08:22;13.60;99.90
11934;DHT22;6026;48.784;9.198;2023-03-23T05:10:54;13.60;99.90
11934;DHT22;6026;48.784;9.198;2023-03-23T05:13:20;13.60;99.90
11934;DHT22;6026;48.784;9.198;2023-03-23T05:15:46;13.70;99.90
11934;DHT22;6026;48.784;9.198;2023-03-23T05:18:12;13.70;99.90
11934;DHT22;6026;48.784;9.198;2023-03-23T05:20:38;13.70;99.90
11934;DHT22;6026;48.784;9.198;2023-03-23T05:23:04;13.80;99.90
11934;DHT22;6026;48.784;9.198;2023-03-23T05:25:30;13.80;99.90
11934;DHT22;6026;48.784;9.198;2023-03-23T05:27:57;13.80;99.90
11934;DHT22;6026;48.784;9.198;2023-03-23T05:30:24;13.90;99.90
11934;DHT22;6026;48.784;9.198;2023-03-23T05:32:50;13.90;99.90
11934;DHT22;6026;48.784;9.198;2023-03-23T05:35:17;13.90;99.90
11934;DHT22;6026;48.784;9.198;2023-03-23T05:37:43;13.80;99.90
11934;DHT22;6026;48.784;9.198;2023-03-23T05:40:09;13.90;99.90
11934;DHT22;6026;48.784;9.198;2023-03-23T05:42:37;13.90;99.90
11934;DHT22;6026;48.784;9.198;2023-03-23T05:45:04;13.90;99.90
11934;DHT22;6026;48.784;9.198;2023-03-23T05:47:30;13.90;99.90
11934;DHT22;6026;48.784;9.198;2023-03-23T05:49:56;13.90;99.90
11934;DHT22;6026;48.784;9.198;2023-03-23T05:52:22;14.00;99.90
11934;DHT22;6026;48.784;9.198;2023-03-23T05:54:50;14.00;99.90
11934;DHT22;6026;48.784;9.198;2023-03-23T05:57:15;14.10;99.90
11934;DHT22;6026;48.784;9.198;2023-03-23T05:59:41;14.10;99.90
11934;DHT22;6026;48.784;9.198;2023-03-23T06:02:07;14.10;99.90
11934;DHT22;6026;48.784;9.198;2023-03-23T06:04:33;14.20;99.90
11934;DHT22;6026;48.784;9.198;2023-03-23T06:07:01;14.20;99.90
11934;DHT22;6026;48.784;9.198;2023-03-23T06:09:27;14.20;99.90
11934;DHT22;6026;48.784;9.198;2023-03-23T06:11:53;14.30;99.90
11934;DHT22;6026;48.784;9.198;2023-03-23T06:14:18;14.30;99.90
11934;DHT22;6026;48.784;9.198;2023-03-23T06:16:44;14.30;99.90
11934;DHT22;6026;48.784;9.198;2023-03-23T06:19:10;14.30;99.90
11934;DHT22;6026;48.784;9.198;2023-03-23T06:21:36;14.30;99.90
11934;DHT22;6026;48.784;9.198;2023-03-23T06:24:02;14.30;99.90
11934;DHT22;6026;48.784;9.198;2023-03-23T06:26:39;14.30;99.90
11934;DHT22;6026;48.784;9.198;2023-03-23T06:29:07;14.30;99.90
11934;DHT22;6026;48.784;9.198;2023-03-23T06:31:41;14.30;99.90
11934;DHT22;6026;48.784;9.198;2023-03-23T06:34:08;14.30;99.90
11934;DHT22;6026;48.784;9.198;2023-03-23T06:36:35;14.30;99.90
11934;DHT22;6026;48.784;9.198;2023-03-23T06:39:02;14.30;99.90
11934;DHT22;6026;48.784;9.198;2023-03-23T06:41:30;14.30;99.90
11934;DHT22;6026;48.784;9.198;2023-03-23T06:43:55;14.30;99.90
11934;DHT22;6026;48.784;9.198;2023-03-23T06:46:21;14.30;99.90
11934;DHT22;6026;48.784;9.198;2023-03-23T06:48:46;14.30;99.90
11934;DHT22;6026;48.784;9.198;2023-03-23T06:51:15;14.20;99.90
11934;DHT22;6026;48.784;9.198;2023-03-23T06:53:40;14.20;99.90
11934;DHT22;6026;48.784;9.198;2023-03-23T06:56:06;14.30;99.90
11934;DHT22;6026;48.784;9.198;2023-03-23T06:58:32;14.30;99.90
11934;DHT22;6026;48.784;9.198;2023-03-23T07:00:58;14.40;99.90
11934;DHT22;6026;48.784;9.198;2023-03-23T07:03:24;14.40;99.90
11934;DHT22;6026;48.784;9.198;2023-03-23T07:05:49;14.50;99.90
11934;DHT22;6026;48.784;9.198;2023-03-23T07:08:15;14.70;99.90
11934;DHT22;6026;48.784;9.198;2023-03-23T07:10:41;14.70;99.90
11934;DHT22;6026;48.784;9.198;2023-03-23T07:13:07;14.70;99.90
11934;DHT22;6026;48.784;9.198;2023-03-23T07:15:32;14.80;99.90
11934;DHT22;6026;48.784;9.198;2023-03-23T07:17:58;14.80;99.90
11934;DHT22;6026;48.784;9.198;2023-03-23T07:20:23;14.80;99.90
11934;DHT22;6026;48.784;9.198;2023-03-23T07:22:49;14.80;99.90
11934;DHT22;6026;48.784;9.198;2023-03-23T07:25:16;14.80;99.90
11934;DHT22;6026;48.784;9.198;2023-03-23T07:27:41;14.80;99.90
11934;DHT22;6026;48.784;9.198;2023-03-23T07:30:07;14.80;99.90
11934;DHT22;6026;48.784;9.198;2023-03-23T07:32:33;14.80;99.90
11934;DHT22;6026;48.784;9.198;2023-03-23T07:34:59;14.80;99.90
11934;DHT22;6026;48.784;9.198;2023-03-23T07:37:24;14.70;99.90
11934;DHT22;6026;48.784;9.198;2023-03-23T07:39:50;14.80;99.90
11934;DHT22;6026;48.784;9.198;2023-03-23T07:42:16;14.80;99.90
11934;DHT22;6026;48.784;9.198;2023-03-23T07:44:41;14.80;99.90
11934;DHT22;6026;48.784;9.198;2023-03-23T07:47:07;14.80;99.90
11934;DHT22;6026;48.784;9.198;2023-03-23T07:49:33;14.90;99.90
11934;DHT22;6026;48.784;9.198;2023-03-23T07:51:59;15.00;99.90
11934;DHT22;6026;48.784;9.198;2023-03-23T07:54:28;15.00;99.90
11934;DHT22;6026;48.784;9.198;2023-03-23T07:56:53;15.10;99.90
11934;DHT22;6026;48.784;9.198;2023-03-23T07:59:19;15.20;99.90
11934;DHT22;6026;48.784;9.198;2023-03-23T08:01:45;15.30;99.90
11934;DHT22;6026;48.784;9.198;2023-03-23T08:04:11;15.40;99.90
11934;DHT22;6026;48.784;9.198;2023-03-23T08:06:38;15.50;99.90
11934;DHT22;6026;48.784;9.198;2023-03-23T08:09:05;15.50;99.90
11934;DHT22;6026;48.784;9.198;2023-03-23T08:11:34;15.60;99.90
11934;DHT22;6026;48.784;9.198;2023-03-23T08:14:01;15.70;99.90
11934;DHT22;6026;48.784;9.198;2023-03-23T08:16:26;15.70;99.90
11934;DHT22;6026;48.784;9.198;2023-03-23T08:18:52;15.70;99.90
11934;DHT22;6026;48.784;9.198;2023-03-23T08:21:18;15.70;99.90
11934;DHT22;6026;48.784;9.198;2023-03-23T08:23:44;15.70;99.90
11934;DHT22;6026;48.784;9.198;2023-03-23T08:26:10;15.70;99.90
11934;DHT22;6026;48.784;9.198;2023-03-23T08:28:37;15.80;99.90
11934;DHT22;6026;48.784;9.198;2023-03-23T08:31:08;15.70;99.90
11934;DHT22;6026;48.784;9.198;2023-03-23T08:33:33;15.80;99.90
11934;DHT22;6026;48.784;9.198;2023-03-23T08:35:59;15.80;99.90
11934;DHT22;6026;48.784;9.198;2023-03-23T08:38:26;15.70;99.90
11934;DHT22;6026;48.784;9.198;2023-03-23T08:41:00;15.70;99.90
11934;DHT22;6026;48.784;9.198;2023-03-23T08:43:27;15.70;99.90
11934;DHT22;6026;48.784;9.198;2023-03-23T08:45:54;15.70;99.90
11934;DHT22;6026;48.784;9.198;2023-03-23T08:48:21;15.70;99.90
11934;DHT22;6026;48.784;9.198;2023-03-23T08:50:48;15.70;99.90
11934;DHT22;6026;48.784;9.198;2023-03-23T08:53:15;15.70;99.90
11934;DHT22;6026;48.784;9.198;2023-03-23T08:55:41;15.60;99.90
11934;DHT22;6026;48.784;9.198;2023-03-23T08:58:06;15.50;99.90
11934;DHT22;6026;48.784;9.198;2023-03-23T09:00:32;15.50;99.90
11934;DHT22;6026;48.784;9.198;2023-03-23T09:02:58;15.50;99.90
11934;DHT22;6026;48.784;9.198;2023-03-23T09:05:26;15.60;99.90
11934;DHT22;6026;48.784;9.198;2023-03-23T09:07:54;15.60;99.90
11934;DHT22;6026;48.784;9.198;2023-03-23T09:10:20;15.70;99.90
11934;DHT22;6026;48.784;9.198;2023-03-23T09:12:47;15.70;99.90
11934;DHT22;6026;48.784;9.198;2023-03-23T09:15:15;15.70;99.90
11934;DHT22;6026;48.784;9.198;2023-03-23T09:17:43;15.80;99.90
11934;DHT22;6026;48.784;9.198;2023-03-23T09:20:11;15.90;99.90
11934;DHT22;6026;48.784;9.198;2023-03-23T09:22:39;16.00;99.90
11934;DHT22;6026;48.784;9.198;2023-03-23T09:25:07;16.10;99.90
11934;DHT22;6026;48.784;9.198;2023-03-23T09:27:34;16.20;99.90
11934;DHT22;6026;48.784;9.198;2023-03-23T09:30:05;16.20;99.90
11934;DHT22;6026;48.784;9.198;2023-03-23T09:32:33;16.20;99.90
11934;DHT22;6026;48.784;9.198;2023-03-23T09:35:01;16.30;99.90
11934;DHT22;6026;48.784;9.198;2023-03-23T09:37:27;16.30;99.90
11934;DHT22;6026;48.784;9.198;2023-03-23T09:39:53;16.30;99.90
11934;DHT22;6026;48.784;9.198;2023-03-23T09:45:27;16.10;99.90
11934;DHT22;6026;48.784;9.198;2023-03-23T09:48:24;16.10;99.90
11934;DHT22;6026;48.784;9.198;2023-03-23T09:51:08;16.10;99.90
11934;DHT22;6026;48.784;9.198;2023-03-23T09:53:39;16.00;99.90
11934;DHT22;6026;48.784;9.198;2023-03-23T09:56:15;16.00;99.90
11934;DHT22;6026;48.784;9.198;2023-03-23T09:58:50;16.00;99.90
11934;DHT22;6026;48.784;9.198;2023-03-23T10:01:28;16.00;99.90
11934;DHT22;6026;48.784;9.198;2023-03-23T10:04:33;16.00;99.90
11934;DHT22;6026;48.784;9.198;2023-03-23T10:07:18;16.10;99.90
11934;DHT22;6026;48.784;9.198;2023-03-23T10:09:47;16.20;99.90
11934;DHT22;6026;48.784;9.198;2023-03-23T10:17:32;16.20;99.90
11934;DHT22;6026;48.784;9.198;2023-03-23T10:22:32;16.20;99.90
11934;DHT22;6026;48.784;9.198;2023-03-23T10:30:31;16.40;99.90
11934;DHT22;6026;48.784;9.198;2023-03-23T10:33:08;16.50;99.90
11934;DHT22;6026;48.784;9.198;2023-03-23T10:36:20;16.60;99.90
11934;DHT22;6026;48.784;9.198;2023-03-23T10:38:42;16.70;99.90
11934;DHT22;6026;48.784;9.198;2023-03-23T10:41:17;16.70;99.90
11934;DHT22;6026;48.784;9.198;2023-03-23T10:43:43;16.80;99.90
11934;DHT22;6026;48.784;9.198;2023-03-23T10:48:54;16.50;99.90
11934;DHT22;6026;48.784;9.198;2023-03-23T10:51:26;16.60;99.90
11934;DHT22;6026;48.784;9.198;2023-03-23T10:53:58;16.50;99.90
11934;DHT22;6026;48.784;9.198;2023-03-23T10:56:29;16.50;99.90
11934;DHT22;6026;48.784;9.198;2023-03-23T10:59:11;16.50;99.90
11934;DHT22;6026;48.784;9.198;2023-03-23T11:01:38;16.60;99.90
11934;DHT22;6026;48.784;9.198;2023-03-23T11:04:11;16.70;99.90
11934;DHT22;6026;48.784;9.198;2023-03-23T11:06:38;16.70;99.90
11934;DHT22;6026;48.784;9.198;2023-03-23T11:09:15;16.80;99.90
11934;DHT22;6026;48.784;9.198;2023-03-23T11:11:47;16.90;99.90
11934;DHT22;6026;48.784;9.198;2023-03-23T11:14:29;16.90;99.90
11934;DHT22;6026;48.784;9.198;2023-03-23T11:17:03;17.00;99.90
11934;DHT22;6026;48.784;9.198;2023-03-23T11:19:31;17.00;99.90
11934;DHT22;6026;48.784;9.198;2023-03-23T11:24:35;16.80;99.90
11934;DHT22;6026;48.784;9.198;2023-03-23T11:27:03;16.70;99.90
11934;DHT22;6026;48.784;9.198;2023-03-23T11:29:33;16.60;99.90
11934;DHT22;6026;48.784;9.198;2023-03-23T11:34:30;16.60;99.90
11934;DHT22;6026;48.784;9.198;2023-03-23T11:37:07;16.60;99.90
11934;DHT22;6026;48.784;9.198;2023-03-23T11:39:49;16.70;99.90
11934;DHT22;6026;48.784;9.198;2023-03-23T11:42:23;16.70;99.90
11934;DHT22;6026;48.784;9.198;2023-03-23T11:44:54;16.90;99.90
11934;DHT22;6026;48.784;9.198;2023-03-23T11:47:29;17.10;99.90
11934;DHT22;6026;48.784;9.198;2023-03-23T11:50:04;17.20;99.90
11934;DHT22;6026;48.784;9.198;2023-03-23T11:52:41;17.20;99.90
11934;DHT22;6026;48.784;9.198;2023-03-23T11:55:15;17.20;99.90
11934;DHT22;6026;48.784;9.198;2023-03-23T11:57:42;17.30;99.90
11934;DHT22;6026;48.784;9.198;2023-03-23T12:00:20;17.20;99.90
11934;DHT22;6026;48.784;9.198;2023-03-23T12:03:06;17.20;99.90
11934;DHT22;6026;48.784;9.198;2023-03-23T12:06:04;17.20;99.90
11934;DHT22;6026;48.784;9.198;2023-03-23T12:11:13;17.20;99.90
11934;DHT22;6026;48.784;9.198;2023-03-23T12:24:58;17.50;99.90
11934;DHT22;6026;48.784;9.198;2023-03-23T12:28:16;17.50;99.90
11934;DHT22;6026;48.784;9.198;2023-03-23T12:41:31;17.50;99.90
11934;DHT22;6026;48.784;9.198;2023-03-23T12:44:08;17.50;99.90
11934;DHT22;6026;48.784;9.198;2023-03-23T12:47:00;17.60;99.90
11934;DHT22;6026;48.784;9.198;2023-03-23T12:49:40;17.80;99.90
11934;DHT22;6026;48.784;9.198;2023-03-23T12:54:47;18.40;99.90
11934;DHT22;6026;48.784;9.198;2023-03-23T13:00:02;18.40;99.90
11934;DHT22;6026;48.784;9.198;2023-03-23T13:08:15;18.10;99.90
11934;DHT22;6026;48.784;9.198;2023-03-23T13:10:46;17.90;99.90
11934;DHT22;6026;48.784;9.198;2023-03-23T13:13:18;17.70;99.90
11934;DHT22;6026;48.784;9.198;2023-03-23T13:18:37;17.60;99.90
11934;DHT22;6026;48.784;9.198;2023-03-23T13:21:24;17.70;99.90
11934;DHT22;6026;48.784;9.198;2023-03-23T13:24:00;17.80;99.90
11934;DHT22;6026;48.784;9.198;2023-03-23T13:26:28;17.70;99.90
11934;DHT22;6026;48.784;9.198;2023-03-23T13:29:00;17.80;99.90
11934;DHT22;6026;48.784;9.198;2023-03-23T13:31:31;17.90;99.90
11934;DHT22;6026;48.784;9.198;2023-03-23T13:34:12;17.90;99.90
11934;DHT22;6026;48.784;9.198;2023-03-23T13:36:43;17.90;99.90
11934;DHT22;6026;48.784;9.198;2023-03-23T13:49:53;18.20;99.90
11934;DHT22;6026;48.784;9.198;2023-03-23T14:05:38;17.80;99.90
11934;DHT22;6026;48.784;9.198;2023-03-23T14:08:24;17.70;99.90
11934;DHT22;6026;48.784;9.198;2023-03-23T14:13:40;17.80;99.90
11934;DHT22;6026;48.784;9.198;2023-03-23T14:16:17;17.80;99.90
11934;DHT22;6026;48.784;9.198;2023-03-23T14:18:59;17.90;99.90
11934;DHT22;6026;48.784;9.198;2023-03-23T14:21:32;17.90;99.90
11934;DHT22;6026;48.784;9.198;2023-03-23T14:24:20;17.90;99.90
11934;DHT22;6026;48.784;9.198;2023-03-23T14:26:48;17.80;99.90
11934;DHT22;6026;48.784;9.198;2023-03-23T14:29:17;17.80;99.90
11934;DHT22;6026;48.784;9.198;2023-03-23T14:31:44;17.80;99.90
11934;DHT22;6026;48.784;9.198;2023-03-23T14:34:15;17.80;99.90
11934;DHT22;6026;48.784;9.198;2023-03-23T14:36:42;17.70;99.90
11934;DHT22;6026;48.784;9.198;2023-03-23T14:41:43;17.70;99.90
11934;DHT22;6026;48.784;9.198;2023-03-23T14:44:15;17.80;99.90
11934;DHT22;6026;48.784;9.198;2023-03-23T14:46:43;17.80;99.90
11934;DHT22;6026;48.784;9.198;2023-03-23T14:49:27;17.80;99.90
11934;DHT22;6026;48.784;9.198;2023-03-23T14:51:54;17.80;99.90
11934;DHT22;6026;48.784;9.198;2023-03-23T14:54:27;17.80;99.90
11934;DHT22;6026;48.784;9.198;2023-03-23T14:56:54;17.80;99.90
11934;DHT22;6026;48.784;9.198;2023-03-23T14:59:20;17.80;99.90
11934;DHT22;6026;48.784;9.198;2023-03-23T15:01:47;17.70;99.90
11934;DHT22;6026;48.784;9.198;2023-03-23T15:04:17;17.70;99.90
11934;DHT22;6026;48.784;9.198;2023-03-23T15:06:48;17.70;99.90
11934;DHT22;6026;48.784;9.198;2023-03-23T15:09:21;17.70;99.90
11934;DHT22;6026;48.784;9.198;2023-03-23T15:11:56;17.70;99.90
11934;DHT22;6026;48.784;9.198;2023-03-23T15:14:28;17.70;99.90
11934;DHT22;6026;48.784;9.198;2023-03-23T15:16:56;17.70;99.90
11934;DHT22;6026;48.784;9.198;2023-03-23T15:19:34;17.70;99.90
11934;DHT22;6026;48.784;9.198;2023-03-23T15:22:11;17.70;99.90
11934;DHT22;6026;48.784;9.198;2023-03-23T15:24:40;17.70;99.90
11934;DHT22;6026;48.784;9.198;2023-03-23T15:29:31;17.80;99.90
11934;DHT22;6026;48.784;9.198;2023-03-23T15:31:57;17.70;99.90
11934;DHT22;6026;48.784;9.198;2023-03-23T15:34:30;17.70;99.90
11934;DHT22;6026;48.784;9.198;2023-03-23T15:37:13;17.70;99.90
11934;DHT22;6026;48.784;9.198;2023-03-23T15:39:43;17.70;99.90
11934;DHT22;6026;48.784;9.198;2023-03-23T15:42:23;17.60;99.90
11934;DHT22;6026;48.784;9.198;2023-03-23T15:45:26;17.60;99.90
11934;DHT22;6026;48.784;9.198;2023-03-23T15:47:52;17.50;99.90
11934;DHT22;6026;48.784;9.198;2023-03-23T15:52:51;17.40;99.90
11934;DHT22;6026;48.784;9.198;2023-03-23T15:57:50;17.30;99.90
11934;DHT22;6026;48.784;9.198;2023-03-23T16:00:17;17.30;99.90
11934;DHT22;6026;48.784;9.198;2023-03-23T16:02:46;17.30;99.90
11934;DHT22;6026;48.784;9.198;2023-03-23T16:05:12;17.30;99.90
11934;DHT22;6026;48.784;9.198;2023-03-23T16:07:38;17.30;99.90
11934;DHT22;6026;48.784;9.198;2023-03-23T16:10:05;17.20;99.90
11934;DHT22;6026;48.784;9.198;2023-03-23T16:12:32;17.20;99.90
11934;DHT22;6026;48.784;9.198;2023-03-23T16:14:58;17.10;99.90
11934;DHT22;6026;48.784;9.198;2023-03-23T16:17:24;17.10;99.90
11934;DHT22;6026;48.784;9.198;2023-03-23T16:19:50;17.00;99.90
11934;DHT22;6026;48.784;9.198;2023-03-23T16:22:16;17.00;99.90
11934;DHT22;6026;48.784;9.198;2023-03-23T16:24:41;16.90;99.90
11934;DHT22;6026;48.784;9.198;2023-03-23T16:27:09;16.90;99.90
11934;DHT22;6026;48.784;9.198;2023-03-23T16:29:35;16.90;99.90
11934;DHT22;6026;48.784;9.198;2023-03-23T16:32:01;16.90;99.90
11934;DHT22;6026;48.784;9.198;2023-03-23T16:34:26;16.90;99.90
11934;DHT22;6026;48.784;9.198;2023-03-23T16:36:54;16.80;99.90
11934;DHT22;6026;48.784;9.198;2023-03-23T16:39:20;16.80;99.90
11934;DHT22;6026;48.784;9.198;2023-03-23T16:41:46;16.80;99.90
11934;DHT22;6026;48.784;9.198;2023-03-23T16:44:12;16.70;99.90
11934;DHT22;6026;48.784;9.198;2023-03-23T16:46:37;16.70;99.90
11934;DHT22;6026;48.784;9.198;2023-03-23T16:49:03;16.70;99.90
11934;DHT22;6026;48.784;9.198;2023-03-23T16:51:29;16.60;99.90
11934;DHT22;6026;48.784;9.198;2023-03-23T16:53:55;16.60;99.90
11934;DHT22;6026;48.784;9.198;2023-03-23T16:56:20;16.50;99.90
11934;DHT22;6026;48.784;9.198;2023-03-23T16:58:46;16.50;99.90
11934;DHT22;6026;48.784;9.198;2023-03-23T17:01:11;16.40;99.90
11934;DHT22;6026;48.784;9.198;2023-03-23T17:03:38;16.40;99.90
11934;DHT22;6026;48.784;9.198;2023-03-23T17:06:04;16.40;99.90
11934;DHT22;6026;48.784;9.198;2023-03-23T17:08:30;16.40;99.90
11934;DHT22;6026;48.784;9.198;2023-03-23T17:10:56;16.40;99.90
11934;DHT22;6026;48.784;9.198;2023-03-23T17:13:21;16.30;99.90
11934;DHT22;6026;48.784;9.198;2023-03-23T17:15:51;16.30;99.90
11934;DHT22;6026;48.784;9.198;2023-03-23T17:18:17;16.30;99.90
11934;DHT22;6026;48.784;9.198;2023-03-23T17:20:43;16.20;99.90
11934;DHT22;6026;48.784;9.198;2023-03-23T17:23:09;16.20;99.90
11934;DHT22;6026;48.784;9.198;2023-03-23T17:25:35;16.20;99.90
11934;DHT22;6026;48.784;9.198;2023-03-23T17:28:01;16.20;99.90
11934;DHT22;6026;48.784;9.198;2023-03-23T17:30:27;16.20;99.90
11934;DHT22;6026;48.784;9.198;2023-03-23T17:32:53;16.10;99.90
11934;DHT22;6026;48.784;9.198;2023-03-23T17:35:19;16.10;99.90
11934;DHT22;6026;48.784;9.198;2023-03-23T17:37:44;16.10;99.90
11934;DHT22;6026;48.784;9.198;2023-03-23T17:40:11;16.10;99.90
11934;DHT22;6026;48.784;9.198;2023-03-23T17:42:37;16.10;99.90
11934;DHT22;6026;48.784;9.198;2023-03-23T17:45:05;16.10;99.90
11934;DHT22;6026;48.784;9.198;2023-03-23T17:47:31;16.10;99.90
11934;DHT22;6026;48.784;9.198;2023-03-23T17:49:56;16.10;99.90
11934;DHT22;6026;48.784;9.198;2023-03-23T17:52:22;16.00;99.90
11934;DHT22;6026;48.784;9.198;2023-03-23T17:54:48;16.00;99.90
11934;DHT22;6026;48.784;9.198;2023-03-23T17:57:14;16.00;99.90
11934;DHT22;6026;48.784;9.198;2023-03-23T17:59:40;16.00;99.90
11934;DHT22;6026;48.784;9.198;2023-03-23T18:02:06;15.90;99.90
11934;DHT22;6026;48.784;9.198;2023-03-23T18:04:31;15.90;99.90
11934;DHT22;6026;48.784;9.198;2023-03-23T18:06:57;15.80;99.90
11934;DHT22;6026;48.784;9.198;2023-03-23T18:09:24;15.90;99.90